Berwick, Ohio
Current Conditions -  °F | °C
As of 4:53 AM on Sunday 23 Nov 2014 (Local Time) from KFDY Reporting Station
Light Rain Light Rain  
Wind Chill: 42°   Ceiling: 3500
Heat Index: 46°   Visibility: 8mi
Dew Point: 42°   Wind: 8mph
Humidity: 86%   Direction: 170°S
Pressure: 29.98"   Gusts: NA
Location:  41.0558°N, 83.3049°W
Report Text: KFDY 230953Z AUTO 17007KT 8SM -RA OVC035 08/06 A2998 RMK AO2 SLP150 P0003 T00780056
Loading
Personal Weather Stations






























Interactive Weather Map New forecast layout! Learn more

10-Day Weather Forecast

Advertisements
Track Severe Weather on mobile